sensor_id;sensor_type;location;lat;lon;timestamp;pressure;altitude;pressure_sealevel;temperature;humidity
29461;BME280;16428;47.836;35.106;2022-12-10T01:33:38;101298.56;;;5.89;100.00
29461;BME280;16428;47.836;35.106;2022-12-10T01:36:10;101306.78;;;6.07;100.00
29461;BME280;16428;47.836;35.106;2022-12-10T01:38:40;101300.63;;;6.06;100.00
29461;BME280;16428;47.836;35.106;2022-12-10T01:41:16;101300.00;;;6.23;100.00
29461;BME280;16428;47.836;35.106;2022-12-10T01:43:54;101302.59;;;6.14;100.00
29461;BME280;16428;47.836;35.106;2022-12-10T01:46:28;101302.31;;;6.07;100.00
29461;BME280;16428;47.836;35.106;2022-12-10T01:48:59;101297.75;;;5.98;100.00
29461;BME280;16428;47.836;35.106;2022-12-10T01:51:35;101295.75;;;5.90;100.00
29461;BME280;16428;47.836;35.106;2022-12-10T01:54:07;101302.19;;;6.09;100.00
29461;BME280;16428;47.836;35.106;2022-12-10T01:56:42;101302.81;;;6.01;100.00
29461;BME280;16428;47.836;35.106;2022-12-10T01:59:12;101312.38;;;6.04;100.00
29461;BME280;16428;47.836;35.106;2022-12-10T02:16:48;101280.66;;;6.41;100.00
29461;BME280;16428;47.836;35.106;2022-12-10T02:19:31;101285.00;;;6.42;100.00
29461;BME280;16428;47.836;35.106;2022-12-10T02:22:07;101276.00;;;6.43;100.00
29461;BME280;16428;47.836;35.106;2022-12-10T02:24:39;101270.41;;;6.46;100.00
29461;BME280;16428;47.836;35.106;2022-12-10T02:27:16;101284.47;;;6.57;100.00
29461;BME280;16428;47.836;35.106;2022-12-10T02:29:52;101277.69;;;6.44;100.00
29461;BME280;16428;47.836;35.106;2022-12-10T02:32:32;101287.31;;;6.56;100.00
29461;BME280;16428;47.836;35.106;2022-12-10T02:35:06;101296.78;;;6.98;100.00
29461;BME280;16428;47.836;35.106;2022-12-10T02:37:47;101294.78;;;6.81;100.00
29461;BME280;16428;47.836;35.106;2022-12-10T02:40:22;101290.97;;;6.74;100.00
29461;BME280;16428;47.836;35.106;2022-12-10T02:42:51;101289.91;;;6.86;100.00
29461;BME280;16428;47.836;35.106;2022-12-10T02:45:23;101281.72;;;6.78;100.00
29461;BME280;16428;47.836;35.106;2022-12-10T02:47:56;101283.41;;;6.69;100.00
29461;BME280;16428;47.836;35.106;2022-12-10T02:50:30;101283.66;;;6.66;100.00
29461;BME280;16428;47.836;35.106;2022-12-10T02:52:58;101274.38;;;6.61;100.00
29461;BME280;16428;47.836;35.106;2022-12-10T02:55:37;101276.34;;;6.59;100.00
29461;BME280;16428;47.836;35.106;2022-12-10T02:58:46;101272.00;;;6.67;100.00
29461;BME280;16428;47.836;35.106;2022-12-10T03:04:30;101269.31;;;6.58;100.00
29461;BME280;16428;47.836;35.106;2022-12-10T03:07:14;101276.38;;;6.68;100.00
29461;BME280;16428;47.836;35.106;2022-12-10T03:09:51;101275.66;;;6.76;100.00
29461;BME280;16428;47.836;35.106;2022-12-10T03:12:32;101268.94;;;6.91;100.00
29461;BME280;16428;47.836;35.106;2022-12-10T03:15:05;101268.22;;;6.80;100.00
29461;BME280;16428;47.836;35.106;2022-12-10T03:17:36;101255.84;;;6.88;100.00
29461;BME280;16428;47.836;35.106;2022-12-10T03:20:08;101259.09;;;6.82;100.00
29461;BME280;16428;47.836;35.106;2022-12-10T03:22:43;101249.13;;;6.84;100.00
29461;BME280;16428;47.836;35.106;2022-12-10T03:25:19;101244.34;;;6.78;100.00
29461;BME280;16428;47.836;35.106;2022-12-10T03:27:50;101250.50;;;6.88;100.00
29461;BME280;16428;47.836;35.106;2022-12-10T03:30:20;101254.16;;;6.68;100.00
29461;BME280;16428;47.836;35.106;2022-12-10T03:32:52;101238.41;;;6.65;100.00
29461;BME280;16428;47.836;35.106;2022-12-10T03:35:23;101243.19;;;6.61;100.00
29461;BME280;16428;47.836;35.106;2022-12-10T03:37:52;101240.69;;;6.69;100.00
29461;BME280;16428;47.836;35.106;2022-12-10T03:40:23;101234.19;;;6.53;100.00
29461;BME280;16428;47.836;35.106;2022-12-10T03:42:54;101237.84;;;6.52;100.00
29461;BME280;16428;47.836;35.106;2022-12-10T03:45:23;101237.28;;;6.58;100.00
29461;BME280;16428;47.836;35.106;2022-12-10T03:47:51;101224.94;;;6.57;100.00
29461;BME280;16428;47.836;35.106;2022-12-10T03:50:20;101237.00;;;6.51;100.00
29461;BME280;16428;47.836;35.106;2022-12-10T03:52:48;101235.91;;;6.83;100.00
29461;BME280;16428;47.836;35.106;2022-12-10T03:55:16;101236.59;;;6.94;100.00
29461;BME280;16428;47.836;35.106;2022-12-10T03:57:45;101248.56;;;7.10;100.00
29461;BME280;16428;47.836;35.106;2022-12-10T04:00:13;101235.91;;;7.02;100.00
29461;BME280;16428;47.836;35.106;2022-12-10T04:02:42;101236.88;;;7.11;100.00
29461;BME280;16428;47.836;35.106;2022-12-10T04:05:10;101242.91;;;7.22;100.00
29461;BME280;16428;47.836;35.106;2022-12-10T04:07:38;101247.97;;;7.25;100.00
29461;BME280;16428;47.836;35.106;2022-12-10T04:10:08;101246.72;;;7.20;100.00
29461;BME280;16428;47.836;35.106;2022-12-10T04:12:37;101246.31;;;7.15;100.00
29461;BME280;16428;47.836;35.106;2022-12-10T04:15:07;101244.59;;;7.04;100.00
29461;BME280;16428;47.836;35.106;2022-12-10T04:17:55;101237.88;;;6.90;100.00
29461;BME280;16428;47.836;35.106;2022-12-10T04:20:23;101237.03;;;6.99;100.00
29461;BME280;16428;47.836;35.106;2022-12-10T04:23:10;101226.88;;;7.03;100.00
29461;BME280;16428;47.836;35.106;2022-12-10T04:25:59;101236.75;;;7.12;100.00
29461;BME280;16428;47.836;35.106;2022-12-10T04:28:47;101235.59;;;7.05;100.00
29461;BME280;16428;47.836;35.106;2022-12-10T04:31:15;101241.41;;;7.00;100.00
29461;BME280;16428;47.836;35.106;2022-12-10T04:33:45;101235.47;;;7.16;100.00
29461;BME280;16428;47.836;35.106;2022-12-10T04:36:14;101238.72;;;7.10;100.00
29461;BME280;16428;47.836;35.106;2022-12-10T04:38:42;101244.34;;;7.17;100.00
29461;BME280;16428;47.836;35.106;2022-12-10T04:41:11;101239.25;;;7.04;100.00
29461;BME280;16428;47.836;35.106;2022-12-10T04:43:43;101240.09;;;7.04;100.00
29461;BME280;16428;47.836;35.106;2022-12-10T04:46:12;101224.78;;;7.06;100.00
29461;BME280;16428;47.836;35.106;2022-12-10T04:48:41;101228.56;;;7.04;100.00
29461;BME280;16428;47.836;35.106;2022-12-10T04:51:11;101231.13;;;7.05;100.00
29461;BME280;16428;47.836;35.106;2022-12-10T04:53:44;101225.78;;;7.05;100.00
29461;BME280;16428;47.836;35.106;2022-12-10T04:56:13;101213.28;;;7.16;100.00
29461;BME280;16428;47.836;35.106;2022-12-10T04:58:42;101210.59;;;7.16;100.00
29461;BME280;16428;47.836;35.106;2022-12-10T05:01:13;101212.88;;;7.01;100.00
29461;BME280;16428;47.836;35.106;2022-12-10T05:03:42;101206.38;;;7.03;100.00
29461;BME280;16428;47.836;35.106;2022-12-10T05:06:15;101207.19;;;7.33;100.00
29461;BME280;16428;47.836;35.106;2022-12-10T05:08:46;101203.50;;;7.34;100.00
29461;BME280;16428;47.836;35.106;2022-12-10T05:11:18;101216.72;;;7.35;100.00
29461;BME280;16428;47.836;35.106;2022-12-10T05:13:47;101211.94;;;7.39;100.00
29461;BME280;16428;47.836;35.106;2022-12-10T05:16:21;101223.41;;;7.68;100.00
29461;BME280;16428;47.836;35.106;2022-12-10T05:18:50;101215.09;;;7.71;100.00
29461;BME280;16428;47.836;35.106;2022-12-10T05:21:21;101217.25;;;7.58;100.00
29461;BME280;16428;47.836;35.106;2022-12-10T05:23:51;101223.34;;;7.88;100.00
29461;BME280;16428;47.836;35.106;2022-12-10T05:26:23;101220.81;;;7.86;100.00
29461;BME280;16428;47.836;35.106;2022-12-10T05:28:53;101226.78;;;7.98;100.00
29461;BME280;16428;47.836;35.106;2022-12-10T05:31:28;101231.44;;;7.96;100.00
29461;BME280;16428;47.836;35.106;2022-12-10T05:33:58;101238.19;;;8.00;100.00
29461;BME280;16428;47.836;35.106;2022-12-10T05:36:30;101248.09;;;7.90;100.00
29461;BME280;16428;47.836;35.106;2022-12-10T05:39:02;101244.72;;;7.88;100.00
29461;BME280;16428;47.836;35.106;2022-12-10T05:41:34;101245.53;;;7.98;100.00
29461;BME280;16428;47.836;35.106;2022-12-10T05:44:04;101248.75;;;8.01;100.00
29461;BME280;16428;47.836;35.106;2022-12-10T05:46:35;101262.09;;;8.11;100.00
29461;BME280;16428;47.836;35.106;2022-12-10T05:49:07;101249.84;;;7.71;100.00
29461;BME280;16428;47.836;35.106;2022-12-10T05:51:38;101244.44;;;7.91;100.00
29461;BME280;16428;47.836;35.106;2022-12-10T05:54:08;101248.91;;;8.00;100.00
29461;BME280;16428;47.836;35.106;2022-12-10T05:56:38;101244.03;;;8.13;100.00
29461;BME280;16428;47.836;35.106;2022-12-10T05:59:09;101240.59;;;8.03;100.00
29461;BME280;16428;47.836;35.106;2022-12-10T06:01:45;101237.13;;;7.46;100.00
29461;BME280;16428;47.836;35.106;2022-12-10T06:04:19;101237.22;;;7.54;100.00
29461;BME280;16428;47.836;35.106;2022-12-10T06:06:49;101241.66;;;7.83;100.00
29461;BME280;16428;47.836;35.106;2022-12-10T06:09:17;101240.00;;;7.72;100.00
29461;BME280;16428;47.836;35.106;2022-12-10T06:11:47;101248.63;;;7.56;100.00
29461;BME280;16428;47.836;35.106;2022-12-10T06:14:16;101245.53;;;7.51;100.00
29461;BME280;16428;47.836;35.106;2022-12-10T06:16:45;101245.34;;;7.72;100.00
29461;BME280;16428;47.836;35.106;2022-12-10T06:19:14;101241.41;;;7.66;100.00
29461;BME280;16428;47.836;35.106;2022-12-10T06:21:43;101234.72;;;7.43;100.00
29461;BME280;16428;47.836;35.106;2022-12-10T06:24:12;101240.19;;;7.51;100.00
29461;BME280;16428;47.836;35.106;2022-12-10T06:26:41;101248.34;;;7.50;100.00
29461;BME280;16428;47.836;35.106;2022-12-10T06:29:13;101249.91;;;7.52;100.00
29461;BME280;16428;47.836;35.106;2022-12-10T06:31:41;101245.97;;;7.56;100.00
29461;BME280;16428;47.836;35.106;2022-12-10T06:34:11;101244.00;;;7.49;100.00
29461;BME280;16428;47.836;35.106;2022-12-10T06:36:40;101238.03;;;7.64;100.00
29461;BME280;16428;47.836;35.106;2022-12-10T06:39:12;101243.38;;;7.64;100.00
29461;BME280;16428;47.836;35.106;2022-12-10T06:41:41;101240.59;;;7.56;100.00
29461;BME280;16428;47.836;35.106;2022-12-10T06:44:13;101248.06;;;7.53;100.00
29461;BME280;16428;47.836;35.106;2022-12-10T06:46:41;101243.13;;;7.58;100.00
29461;BME280;16428;47.836;35.106;2022-12-10T06:49:11;101249.44;;;7.66;100.00
29461;BME280;16428;47.836;35.106;2022-12-10T06:51:40;101245.50;;;8.07;100.00
29461;BME280;16428;47.836;35.106;2022-12-10T06:54:12;101242.75;;;7.90;100.00
29461;BME280;16428;47.836;35.106;2022-12-10T06:56:41;101240.09;;;7.90;100.00
29461;BME280;16428;47.836;35.106;2022-12-10T06:59:11;101230.19;;;8.00;100.00
29461;BME280;16428;47.836;35.106;2022-12-10T07:01:42;101241.13;;;7.79;100.00
29461;BME280;16428;47.836;35.106;2022-12-10T07:04:15;101236.59;;;7.80;100.00
29461;BME280;16428;47.836;35.106;2022-12-10T07:06:53;101235.97;;;7.95;100.00
29461;BME280;16428;47.836;35.106;2022-12-10T07:09:23;101222.78;;;7.84;100.00
29461;BME280;16428;47.836;35.106;2022-12-10T07:11:53;101220.94;;;7.85;100.00
29461;BME280;16428;47.836;35.106;2022-12-10T07:14:33;101220.84;;;7.76;100.00
29461;BME280;16428;47.836;35.106;2022-12-10T07:17:06;101211.50;;;7.90;100.00
29461;BME280;16428;47.836;35.106;2022-12-10T07:19:36;101212.81;;;7.76;100.00
29461;BME280;16428;47.836;35.106;2022-12-10T07:22:05;101205.69;;;7.95;100.00
29461;BME280;16428;47.836;35.106;2022-12-10T07:24:45;101195.78;;;7.78;100.00
29461;BME280;16428;47.836;35.106;2022-12-10T07:27:19;101197.66;;;7.95;100.00
29461;BME280;16428;47.836;35.106;2022-12-10T07:30:04;101196.84;;;7.94;100.00
29461;BME280;16428;47.836;35.106;2022-12-10T07:32:33;101200.81;;;7.90;100.00
29461;BME280;16428;47.836;35.106;2022-12-10T07:35:01;101201.38;;;7.84;100.00
29461;BME280;16428;47.836;35.106;2022-12-10T07:37:30;101203.69;;;8.06;100.00
29461;BME280;16428;47.836;35.106;2022-12-10T07:39:59;101199.47;;;8.04;100.00
29461;BME280;16428;47.836;35.106;2022-12-10T07:42:32;101192.84;;;8.08;100.00
29461;BME280;16428;47.836;35.106;2022-12-10T07:45:00;101183.81;;;8.09;100.00
29461;BME280;16428;47.836;35.106;2022-12-10T07:47:29;101179.06;;;8.03;100.00
29461;BME280;16428;47.836;35.106;2022-12-10T07:50:02;101185.03;;;8.15;100.00
29461;BME280;16428;47.836;35.106;2022-12-10T07:52:32;101182.50;;;8.13;100.00
29461;BME280;16428;47.836;35.106;2022-12-10T07:55:00;101162.69;;;8.33;100.00
29461;BME280;16428;47.836;35.106;2022-12-10T10:51:44;100913.66;;;8.69;100.00
29461;BME280;16428;47.836;35.106;2022-12-10T10:54:40;100907.94;;;8.72;100.00
29461;BME280;16428;47.836;35.106;2022-12-10T10:59:46;100908.69;;;8.90;100.00
29461;BME280;16428;47.836;35.106;2022-12-10T11:02:51;100906.75;;;9.00;100.00
29461;BME280;16428;47.836;35.106;2022-12-10T11:05:23;100901.19;;;9.02;100.00
29461;BME280;16428;47.836;35.106;2022-12-10T11:08:20;100889.00;;;8.99;100.00
29461;BME280;16428;47.836;35.106;2022-12-10T11:10:51;100883.31;;;9.10;100.00
29461;BME280;16428;47.836;35.106;2022-12-10T11:13:25;100878.78;;;9.03;100.00
29461;BME280;16428;47.836;35.106;2022-12-10T11:16:02;100876.09;;;9.03;100.00
29461;BME280;16428;47.836;35.106;2022-12-10T11:18:41;100871.59;;;9.11;100.00
29461;BME280;16428;47.836;35.106;2022-12-10T11:21:19;100870.28;;;9.15;100.00
29461;BME280;16428;47.836;35.106;2022-12-10T11:23:54;100869.09;;;9.18;100.00
29461;BME280;16428;47.836;35.106;2022-12-10T11:38:29;100850.88;;;9.38;100.00
29461;BME280;16428;47.836;35.106;2022-12-10T11:47:14;100857.59;;;9.50;100.00
29461;BME280;16428;47.836;35.106;2022-12-10T12:01:39;100840.84;;;9.88;100.00
29461;BME280;16428;47.836;35.106;2022-12-10T12:10:35;100824.97;;;10.42;100.00
29461;BME280;16428;47.836;35.106;2022-12-10T12:13:31;100830.72;;;10.31;100.00
29461;BME280;16428;47.836;35.106;2022-12-10T12:16:16;100826.28;;;10.46;100.00
29461;BME280;16428;47.836;35.106;2022-12-10T12:19:03;100835.06;;;10.32;100.00
29461;BME280;16428;47.836;35.106;2022-12-10T12:21:36;100821.41;;;10.50;100.00
29461;BME280;16428;47.836;35.106;2022-12-10T12:24:33;100821.34;;;10.66;100.00
29461;BME280;16428;47.836;35.106;2022-12-10T12:27:16;100823.03;;;10.67;100.00
29461;BME280;16428;47.836;35.106;2022-12-10T12:30:13;100824.50;;;10.70;100.00
29461;BME280;16428;47.836;35.106;2022-12-10T12:35:43;100821.09;;;10.84;100.00
29461;BME280;16428;47.836;35.106;2022-12-10T12:40:53;100808.13;;;10.87;100.00
29461;BME280;16428;47.836;35.106;2022-12-10T12:46:02;100817.75;;;10.82;100.00
29461;BME280;16428;47.836;35.106;2022-12-10T12:48:55;100822.81;;;10.77;100.00
29461;BME280;16428;47.836;35.106;2022-12-10T12:51:36;100825.75;;;10.90;100.00
29461;BME280;16428;47.836;35.106;2022-12-10T12:54:10;100813.06;;;10.76;100.00
29461;BME280;16428;47.836;35.106;2022-12-10T12:56:58;100820.44;;;10.82;100.00
29461;BME280;16428;47.836;35.106;2022-12-10T13:02:58;100815.06;;;10.82;100.00
29461;BME280;16428;47.836;35.106;2022-12-10T13:05:32;100804.31;;;10.82;100.00
29461;BME280;16428;47.836;35.106;2022-12-10T13:11:18;100804.81;;;11.31;100.00
29461;BME280;16428;47.836;35.106;2022-12-10T13:14:27;100797.91;;;11.14;100.00
29461;BME280;16428;47.836;35.106;2022-12-10T13:17:24;100796.81;;;11.23;100.00
29461;BME280;16428;47.836;35.106;2022-12-10T13:23:08;100802.06;;;11.16;100.00
29461;BME280;16428;47.836;35.106;2022-12-10T13:28:39;100801.38;;;11.22;100.00
29461;BME280;16428;47.836;35.106;2022-12-10T13:37:02;100791.69;;;11.36;100.00
29461;BME280;16428;47.836;35.106;2022-12-10T13:42:40;100795.03;;;11.38;100.00
29461;BME280;16428;47.836;35.106;2022-12-10T13:45:33;100785.09;;;11.39;100.00
29461;BME280;16428;47.836;35.106;2022-12-10T13:48:28;100783.97;;;11.33;100.00
29461;BME280;16428;47.836;35.106;2022-12-10T13:57:30;100792.22;;;11.09;100.00
29461;BME280;16428;47.836;35.106;2022-12-10T14:00:23;100795.00;;;11.15;100.00
29461;BME280;16428;47.836;35.106;2022-12-10T14:09:06;100788.38;;;11.03;100.00
29461;BME280;16428;47.836;35.106;2022-12-10T14:11:46;100781.03;;;10.97;100.00
29461;BME280;16428;47.836;35.106;2022-12-10T14:14:33;100781.28;;;11.10;100.00
29461;BME280;16428;47.836;35.106;2022-12-10T14:17:08;100767.84;;;11.10;100.00
29461;BME280;16428;47.836;35.106;2022-12-10T14:19:42;100773.25;;;11.02;100.00
29461;BME280;16428;47.836;35.106;2022-12-10T14:22:20;100768.63;;;11.19;100.00
29461;BME280;16428;47.836;35.106;2022-12-10T14:24:59;100762.53;;;11.25;100.00
29461;BME280;16428;47.836;35.106;2022-12-10T14:27:30;100764.72;;;11.21;100.00
29461;BME280;16428;47.836;35.106;2022-12-10T14:30:04;100756.09;;;11.11;100.00
29461;BME280;16428;47.836;35.106;2022-12-10T14:32:37;100761.94;;;11.15;100.00
29461;BME280;16428;47.836;35.106;2022-12-10T14:35:16;100761.09;;;11.14;100.00
29461;BME280;16428;47.836;35.106;2022-12-10T14:37:55;100760.84;;;11.01;100.00
29461;BME280;16428;47.836;35.106;2022-12-10T14:40:39;100755.47;;;11.01;100.00
29461;BME280;16428;47.836;35.106;2022-12-10T14:43:24;100763.84;;;11.06;100.00
29461;BME280;16428;47.836;35.106;2022-12-10T14:46:03;100747.28;;;11.17;100.00
29461;BME280;16428;47.836;35.106;2022-12-10T14:48:39;100754.63;;;11.23;100.00
29461;BME280;16428;47.836;35.106;2022-12-10T14:51:19;100739.69;;;11.21;100.00
29461;BME280;16428;47.836;35.106;2022-12-10T14:53:49;100759.72;;;11.18;100.00
29461;BME280;16428;47.836;35.106;2022-12-10T14:56:47;100751.59;;;11.26;100.00
29461;BME280;16428;47.836;35.106;2022-12-10T14:59:21;100754.50;;;11.17;100.00
29461;BME280;16428;47.836;35.106;2022-12-10T15:01:56;100754.06;;;11.13;100.00
29461;BME280;16428;47.836;35.106;2022-12-10T15:04:38;100753.50;;;11.18;100.00
29461;BME280;16428;47.836;35.106;2022-12-10T15:07:13;100752.00;;;11.15;100.00
29461;BME280;16428;47.836;35.106;2022-12-10T15:09:48;100745.69;;;11.08;100.00
29461;BME280;16428;47.836;35.106;2022-12-10T15:12:44;100738.50;;;11.23;100.00
29461;BME280;16428;47.836;35.106;2022-12-10T15:15:21;100737.66;;;11.00;100.00
29461;BME280;16428;47.836;35.106;2022-12-10T15:18:27;100736.25;;;11.12;100.00
29461;BME280;16428;47.836;35.106;2022-12-10T15:21:12;100739.94;;;11.11;100.00
29461;BME280;16428;47.836;35.106;2022-12-10T15:23:43;100736.00;;;11.22;100.00
29461;BME280;16428;47.836;35.106;2022-12-10T15:26:28;100728.53;;;11.09;100.00
29461;BME280;16428;47.836;35.106;2022-12-10T15:29:30;100732.94;;;11.02;100.00
29461;BME280;16428;47.836;35.106;2022-12-10T15:32:12;100725.84;;;11.09;100.00
29461;BME280;16428;47.836;35.106;2022-12-10T15:34:45;100727.16;;;11.13;100.00
29461;BME280;16428;47.836;35.106;2022-12-10T15:37:38;100721.91;;;10.97;100.00
29461;BME280;16428;47.836;35.106;2022-12-10T15:40:30;100730.75;;;11.06;100.00
29461;BME280;16428;47.836;35.106;2022-12-10T15:43:26;100734.84;;;11.16;100.00
29461;BME280;16428;47.836;35.106;2022-12-10T15:45:58;100733.13;;;11.01;100.00
29461;BME280;16428;47.836;35.106;2022-12-10T15:48:30;100732.41;;;11.07;100.00
29461;BME280;16428;47.836;35.106;2022-12-10T15:50:58;100726.19;;;11.06;100.00
29461;BME280;16428;47.836;35.106;2022-12-10T15:53:35;100734.78;;;11.02;100.00
29461;BME280;16428;47.836;35.106;2022-12-10T15:56:07;100728.69;;;10.85;100.00
29461;BME280;16428;47.836;35.106;2022-12-10T15:58:35;100736.41;;;10.88;100.00
29461;BME280;16428;47.836;35.106;2022-12-10T16:01:04;100728.06;;;11.06;100.00
29461;BME280;16428;47.836;35.106;2022-12-10T16:03:35;100733.84;;;10.95;100.00
29461;BME280;16428;47.836;35.106;2022-12-10T16:06:06;100728.22;;;11.04;100.00
29461;BME280;16428;47.836;35.106;2022-12-10T16:08:35;100728.00;;;11.14;100.00
29461;BME280;16428;47.836;35.106;2022-12-10T16:11:15;100727.53;;;11.10;100.00
29461;BME280;16428;47.836;35.106;2022-12-10T16:13:53;100718.22;;;10.98;100.00
29461;BME280;16428;47.836;35.106;2022-12-10T16:16:23;100725.50;;;11.12;100.00
29461;BME280;16428;47.836;35.106;2022-12-10T16:18:52;100728.47;;;11.17;100.00
29461;BME280;16428;47.836;35.106;2022-12-10T16:21:22;100730.50;;;11.15;100.00
29461;BME280;16428;47.836;35.106;2022-12-10T16:23:51;100723.09;;;11.17;100.00
29461;BME280;16428;47.836;35.106;2022-12-10T16:26:21;100727.41;;;11.26;100.00
29461;BME280;16428;47.836;35.106;2022-12-10T16:28:51;100731.81;;;11.19;100.00
29461;BME280;16428;47.836;35.106;2022-12-10T16:31:20;100722.91;;;11.19;100.00
29461;BME280;16428;47.836;35.106;2022-12-10T16:33:50;100729.91;;;11.28;100.00
29461;BME280;16428;47.836;35.106;2022-12-10T16:36:21;100719.03;;;11.21;100.00
29461;BME280;16428;47.836;35.106;2022-12-10T16:38:49;100727.75;;;11.23;100.00
29461;BME280;16428;47.836;35.106;2022-12-10T16:41:23;100721.31;;;11.47;100.00
29461;BME280;16428;47.836;35.106;2022-12-10T16:43:52;100721.88;;;11.43;100.00
29461;BME280;16428;47.836;35.106;2022-12-10T19:40:03;100687.94;;;9.72;100.00
29461;BME280;16428;47.836;35.106;2022-12-10T19:42:33;100692.31;;;9.73;100.00
29461;BME280;16428;47.836;35.106;2022-12-10T19:45:02;100684.56;;;9.78;100.00
29461;BME280;16428;47.836;35.106;2022-12-10T19:47:36;100690.25;;;9.92;100.00
29461;BME280;16428;47.836;35.106;2022-12-10T19:50:12;100689.41;;;9.83;100.00
29461;BME280;16428;47.836;35.106;2022-12-10T19:53:02;100680.69;;;9.81;100.00
29461;BME280;16428;47.836;35.106;2022-12-10T19:55:33;100683.38;;;9.89;100.00
29461;BME280;16428;47.836;35.106;2022-12-10T19:58:02;100687.41;;;9.85;100.00
29461;BME280;16428;47.836;35.106;2022-12-10T20:00:31;100693.25;;;9.88;100.00
29461;BME280;16428;47.836;35.106;2022-12-10T20:03:04;100689.91;;;9.86;100.00
29461;BME280;16428;47.836;35.106;2022-12-10T20:05:32;100690.41;;;9.82;100.00
29461;BME280;16428;47.836;35.106;2022-12-10T20:08:01;100697.63;;;9.90;100.00
29461;BME280;16428;47.836;35.106;2022-12-10T20:10:31;100691.59;;;9.87;100.00
29461;BME280;16428;47.836;35.106;2022-12-10T20:13:01;100691.25;;;9.91;100.00
29461;BME280;16428;47.836;35.106;2022-12-10T20:15:30;100691.19;;;9.99;100.00
29461;BME280;16428;47.836;35.106;2022-12-10T20:18:01;100691.53;;;9.96;100.00
29461;BME280;16428;47.836;35.106;2022-12-10T20:20:34;100695.41;;;9.93;100.00
29461;BME280;16428;47.836;35.106;2022-12-10T20:23:02;100701.47;;;9.87;100.00
29461;BME280;16428;47.836;35.106;2022-12-10T20:25:32;100699.97;;;9.93;100.00
29461;BME280;16428;47.836;35.106;2022-12-10T20:28:03;100702.59;;;10.01;100.00
29461;BME280;16428;47.836;35.106;2022-12-10T20:30:34;100701.59;;;9.94;100.00
29461;BME280;16428;47.836;35.106;2022-12-10T20:33:02;100711.50;;;9.93;100.00
29461;BME280;16428;47.836;35.106;2022-12-10T20:35:52;100708.53;;;9.88;100.00
29461;BME280;16428;47.836;35.106;2022-12-10T20:38:20;100697.63;;;9.90;100.00
29461;BME280;16428;47.836;35.106;2022-12-10T20:40:51;100696.44;;;9.92;100.00
29461;BME280;16428;47.836;35.106;2022-12-10T20:43:21;100690.88;;;9.94;100.00
29461;BME280;16428;47.836;35.106;2022-12-10T20:45:48;100682.88;;;9.85;100.00
29461;BME280;16428;47.836;35.106;2022-12-10T20:48:18;100695.09;;;9.88;100.00
29461;BME280;16428;47.836;35.106;2022-12-10T20:50:50;100693.94;;;9.82;100.00
29461;BME280;16428;47.836;35.106;2022-12-10T20:53:19;100693.94;;;9.82;100.00
29461;BME280;16428;47.836;35.106;2022-12-10T20:55:47;100680.16;;;9.94;100.00
29461;BME280;16428;47.836;35.106;2022-12-10T20:58:17;100682.66;;;9.95;100.00
29461;BME280;16428;47.836;35.106;2022-12-10T21:00:46;100674.81;;;9.85;100.00
29461;BME280;16428;47.836;35.106;2022-12-10T21:03:14;100667.09;;;9.91;100.00
29461;BME280;16428;47.836;35.106;2022-12-10T21:05:43;100673.59;;;9.96;100.00
29461;BME280;16428;47.836;35.106;2022-12-10T21:08:12;100673.44;;;9.98;100.00
29461;BME280;16428;47.836;35.106;2022-12-10T21:10:48;100680.47;;;9.99;100.00
29461;BME280;16428;47.836;35.106;2022-12-10T21:13:21;100681.09;;;10.09;100.00
29461;BME280;16428;47.836;35.106;2022-12-10T21:15:55;100679.78;;;10.05;100.00
29461;BME280;16428;47.836;35.106;2022-12-10T21:18:30;100683.66;;;10.41;100.00
29461;BME280;16428;47.836;35.106;2022-12-10T21:21:00;100683.88;;;10.32;100.00
29461;BME280;16428;47.836;35.106;2022-12-10T21:23:28;100685.88;;;10.38;100.00
29461;BME280;16428;47.836;35.106;2022-12-10T21:25:59;100684.53;;;10.34;100.00
29461;BME280;16428;47.836;35.106;2022-12-10T21:28:27;100687.00;;;10.43;100.00
29461;BME280;16428;47.836;35.106;2022-12-10T21:30:58;100680.25;;;10.47;100.00
29461;BME280;16428;47.836;35.106;2022-12-10T21:33:41;100681.78;;;10.42;100.00
29461;BME280;16428;47.836;35.106;2022-12-10T21:36:15;100685.88;;;10.61;100.00
29461;BME280;16428;47.836;35.106;2022-12-10T21:38:50;100684.88;;;10.62;100.00
29461;BME280;16428;47.836;35.106;2022-12-10T21:41:23;100693.25;;;10.67;100.00
29461;BME280;16428;47.836;35.106;2022-12-10T21:44:13;100685.47;;;10.72;100.00
29461;BME280;16428;47.836;35.106;2022-12-10T21:46:42;100692.16;;;10.76;100.00
29461;BME280;16428;47.836;35.106;2022-12-10T21:49:11;100698.22;;;10.70;100.00
29461;BME280;16428;47.836;35.106;2022-12-10T21:51:40;100705.91;;;10.81;100.00
29461;BME280;16428;47.836;35.106;2022-12-10T21:54:10;100696.94;;;10.88;100.00
29461;BME280;16428;47.836;35.106;2022-12-10T21:56:38;100700.53;;;10.81;100.00
29461;BME280;16428;47.836;35.106;2022-12-10T21:59:09;100711.22;;;10.89;100.00
29461;BME280;16428;47.836;35.106;2022-12-10T22:01:39;100718.78;;;10.85;100.00
29461;BME280;16428;47.836;35.106;2022-12-10T22:04:08;100706.84;;;10.88;100.00
29461;BME280;16428;47.836;35.106;2022-12-10T22:06:45;100710.53;;;10.87;100.00
29461;BME280;16428;47.836;35.106;2022-12-10T22:09:15;100711.53;;;10.94;100.00
29461;BME280;16428;47.836;35.106;2022-12-10T22:11:44;100717.38;;;10.98;100.00